createdAt,value
2019-02-18T00:02:00.010Z,10.10
2019-02-18T00:04:29.402Z,10.10
2019-02-18T00:06:58.807Z,10.00
2019-02-18T00:09:28.269Z,10.00
2019-02-18T00:11:57.724Z,9.90
2019-02-18T00:14:27.113Z,9.80
2019-02-18T00:16:56.514Z,9.70
2019-02-18T00:19:26.137Z,9.60
2019-02-18T00:21:55.542Z,9.50
2019-02-18T00:24:25.057Z,9.40
2019-02-18T00:26:54.385Z,9.30
2019-02-18T00:29:23.812Z,9.20
2019-02-18T00:31:53.423Z,9.10
2019-02-18T00:34:23.065Z,9.00
2019-02-18T00:36:52.459Z,8.90
2019-02-18T00:39:21.856Z,8.80
2019-02-18T00:41:51.229Z,8.70
2019-02-18T00:44:22.277Z,8.70
2019-02-18T00:46:51.686Z,8.70
2019-02-18T00:49:21.088Z,8.70
2019-02-18T00:51:50.466Z,8.70
2019-02-18T00:54:20.264Z,8.60
2019-02-18T00:56:49.656Z,8.60
2019-02-18T00:59:19.037Z,8.50
2019-02-18T01:01:48.535Z,8.50
2019-02-18T01:04:18.177Z,8.40
2019-02-18T01:06:47.607Z,8.30
2019-02-18T01:09:17.003Z,8.20
2019-02-18T01:11:46.624Z,8.10
2019-02-18T01:14:16.040Z,7.90
2019-02-18T01:16:45.403Z,7.80
2019-02-18T01:19:14.820Z,7.70
2019-02-18T01:21:44.237Z,7.60
2019-02-18T01:24:13.970Z,7.50
2019-02-18T01:26:43.361Z,7.40
2019-02-18T01:29:12.733Z,7.40
2019-02-18T01:31:42.124Z,7.20
2019-02-18T01:34:11.507Z,7.20
2019-02-18T01:36:43.207Z,7.10
2019-02-18T01:39:15.876Z,7.00
2019-02-18T01:41:45.322Z,7.00
2019-02-18T01:44:14.692Z,6.90
2019-02-18T01:46:44.161Z,6.90
2019-02-18T01:49:13.625Z,6.80
2019-02-18T01:51:43.194Z,6.80
2019-02-18T01:54:12.837Z,6.70
2019-02-18T01:56:42.293Z,6.70
2019-02-18T01:59:14.279Z,6.70
2019-02-18T02:01:43.655Z,6.70
2019-02-18T02:04:13.053Z,6.70
2019-02-18T02:06:42.808Z,6.70
2019-02-18T02:09:13.849Z,6.60
2019-02-18T02:11:43.349Z,6.60
2019-02-18T02:14:12.792Z,6.50
2019-02-18T02:16:42.130Z,6.50
2019-02-18T02:19:11.648Z,6.50
2019-02-18T02:21:41.630Z,6.40
2019-02-18T02:24:11.667Z,6.40
2019-02-18T02:26:41.153Z,6.40
2019-02-18T02:29:10.542Z,6.30
2019-02-18T02:31:39.932Z,6.30
2019-02-18T02:34:09.317Z,6.20
2019-02-18T02:36:38.690Z,6.20
2019-02-18T02:39:11.034Z,6.20
2019-02-18T02:41:40.405Z,6.10
2019-02-18T02:44:10.634Z,6.10
2019-02-18T02:46:40.000Z,6.10
2019-02-18T02:49:09.771Z,6.10
2019-02-18T02:51:39.163Z,6.10
2019-02-18T02:54:08.873Z,6.20
2019-02-18T02:56:38.312Z,6.20
2019-02-18T02:59:07.981Z,6.30
2019-02-18T03:01:37.343Z,6.30
2019-02-18T03:04:06.765Z,6.40
2019-02-18T03:06:36.123Z,6.40
2019-02-18T03:09:08.503Z,6.40
2019-02-18T03:11:37.915Z,6.40
2019-02-18T03:14:07.632Z,6.40
2019-02-18T03:16:37.038Z,6.40
2019-02-18T03:19:06.746Z,6.40
2019-02-18T03:21:36.140Z,6.40
2019-02-18T03:24:05.513Z,6.40
2019-02-18T03:26:35.375Z,6.40
2019-02-18T03:29:17.918Z,6.40
2019-02-18T03:31:47.382Z,6.50
2019-02-18T03:34:21.459Z,6.50
2019-02-18T03:36:50.908Z,6.50
2019-02-18T03:39:20.543Z,6.50
2019-02-18T03:41:49.907Z,6.50
2019-02-18T03:44:19.270Z,6.50
2019-02-18T03:46:50.605Z,6.50
2019-02-18T03:49:19.845Z,6.60
2019-02-18T03:51:49.252Z,6.50
2019-02-18T03:54:18.609Z,6.50
2019-02-18T03:56:48.018Z,6.50
2019-02-18T03:59:17.395Z,6.50
2019-02-18T04:01:46.952Z,6.50
2019-02-18T04:04:16.439Z,6.50
2019-02-18T04:06:46.002Z,6.40
2019-02-18T04:09:15.601Z,6.40
2019-02-18T04:11:45.256Z,6.30
2019-02-18T04:14:14.794Z,6.20
2019-02-18T04:16:44.446Z,6.10
2019-02-18T04:19:14.489Z,6.00
2019-02-18T04:21:44.525Z,5.90
2019-02-18T04:24:14.939Z,5.80
2019-02-18T04:26:44.316Z,5.70
2019-02-18T04:29:13.692Z,5.70
2019-02-18T04:31:43.118Z,5.60
2019-02-18T04:34:12.456Z,5.60
2019-02-18T04:36:44.852Z,5.50
2019-02-18T04:39:14.225Z,5.40
2019-02-18T04:41:43.632Z,5.40
2019-02-18T04:44:12.999Z,5.40
2019-02-18T04:46:42.491Z,5.40
2019-02-18T04:49:11.873Z,5.40
2019-02-18T04:51:41.267Z,5.50
2019-02-18T04:54:10.730Z,5.50
2019-02-18T04:56:43.100Z,5.50
2019-02-18T04:59:12.508Z,5.60
2019-02-18T05:01:42.357Z,5.60
2019-02-18T05:04:14.039Z,5.70
2019-02-18T05:06:42.950Z,5.80
2019-02-18T05:09:12.305Z,5.90
2019-02-18T05:11:41.818Z,5.90
2019-02-18T05:14:11.272Z,6.00
2019-02-18T05:16:41.017Z,6.00
2019-02-18T05:19:10.404Z,6.00
2019-02-18T05:21:39.803Z,6.00
2019-02-18T05:24:09.268Z,6.00
2019-02-18T05:26:38.656Z,6.00
2019-02-18T05:29:08.049Z,6.00
2019-02-18T05:31:37.575Z,5.90
2019-02-18T05:34:06.935Z,5.90
2019-02-18T05:36:36.515Z,5.90
2019-02-18T05:39:17.503Z,5.90
2019-02-18T05:41:49.981Z,5.80
2019-02-18T05:44:15.428Z,5.80
2019-02-18T05:46:44.899Z,5.70
2019-02-18T05:49:14.322Z,5.70
2019-02-18T05:51:43.913Z,5.70
2019-02-18T05:54:14.157Z,5.60
2019-02-18T05:56:44.403Z,5.60
2019-02-18T05:59:14.663Z,5.60
2019-02-18T06:01:44.211Z,5.70
2019-02-18T06:04:13.882Z,5.70
2019-02-18T06:06:43.349Z,5.80
2019-02-18T06:09:12.735Z,5.90
2019-02-18T06:11:42.367Z,6.00
2019-02-18T06:14:11.792Z,6.00
2019-02-18T06:16:41.191Z,6.10
2019-02-18T06:19:10.691Z,6.10
2019-02-18T06:21:40.197Z,6.20
2019-02-18T06:24:09.695Z,6.20
2019-02-18T06:26:41.431Z,6.20
2019-02-18T06:29:11.198Z,6.30
2019-02-18T06:31:45.941Z,6.30
2019-02-18T06:34:18.692Z,6.30
2019-02-18T06:36:51.795Z,6.30
2019-02-18T06:39:23.134Z,6.30
2019-02-18T06:41:52.815Z,6.30
2019-02-18T06:44:26.770Z,6.20
2019-02-18T06:46:59.649Z,6.20
2019-02-18T06:49:29.657Z,6.20
2019-02-18T06:51:59.198Z,6.10
2019-02-18T06:54:28.716Z,6.10
2019-02-18T06:57:10.977Z,6.10
2019-02-18T06:59:41.831Z,6.10
2019-02-18T07:02:13.037Z,6.20
2019-02-18T07:04:56.792Z,6.30
2019-02-18T07:07:40.428Z,6.50
2019-02-18T07:10:12.113Z,6.70
2019-02-18T07:12:43.329Z,7.00
2019-02-18T07:15:13.294Z,7.30
2019-02-18T07:17:42.929Z,7.60
2019-02-18T07:20:12.643Z,8.00
2019-02-18T07:22:43.511Z,8.40
2019-02-18T07:25:13.161Z,8.80
2019-02-18T07:27:45.210Z,9.30
2019-02-18T07:30:15.276Z,9.80
2019-02-18T07:32:44.829Z,10.40
2019-02-18T07:35:15.223Z,10.90
2019-02-18T07:37:46.267Z,11.40
2019-02-18T07:40:15.879Z,11.90
2019-02-18T07:42:45.865Z,12.40
2019-02-18T07:45:15.560Z,12.90
2019-02-18T07:47:48.667Z,13.40
2019-02-18T07:50:20.969Z,13.90
2019-02-18T07:52:49.891Z,14.40
2019-02-18T07:55:19.778Z,14.90
2019-02-18T07:57:49.713Z,15.30
2019-02-18T08:00:20.009Z,15.70
2019-02-18T08:02:51.559Z,16.10
2019-02-18T08:05:23.614Z,16.50
2019-02-18T08:07:53.163Z,16.90
2019-02-18T08:10:22.753Z,17.30
2019-02-18T08:13:07.479Z,17.70
2019-02-18T08:15:37.516Z,18.10
2019-02-18T08:18:06.949Z,18.40
2019-02-18T08:20:36.871Z,18.80
2019-02-18T08:23:07.743Z,19.10
2019-02-18T08:25:37.737Z,19.50
2019-02-18T08:28:07.529Z,19.80
2019-02-18T08:30:37.359Z,20.10
2019-02-18T08:33:07.117Z,20.50
2019-02-18T08:35:39.577Z,20.80
2019-02-18T08:38:13.786Z,21.10
2019-02-18T08:40:43.655Z,21.40
2019-02-18T08:43:13.494Z,21.70
2019-02-18T08:45:47.288Z,21.90
2019-02-18T08:48:19.847Z,22.00
2019-02-18T08:50:49.417Z,22.20
2019-02-18T08:53:19.126Z,22.40
2019-02-18T08:55:49.456Z,22.60
2019-02-18T08:58:19.280Z,22.70
2019-02-18T09:00:48.994Z,22.80
2019-02-18T09:03:18.797Z,23.00
2019-02-18T09:05:48.380Z,23.10
2019-02-18T09:08:18.886Z,23.10
2019-02-18T09:10:48.976Z,23.20
2019-02-18T09:13:19.235Z,23.20
2019-02-18T09:15:59.422Z,23.30
2019-02-18T09:18:20.898Z,23.40
2019-02-18T09:20:52.301Z,23.50
2019-02-18T09:23:23.847Z,23.70
2019-02-18T09:25:55.073Z,23.80
2019-02-18T09:28:24.932Z,23.90
2019-02-18T09:30:56.529Z,24.00
2019-02-18T09:33:26.710Z,24.10
2019-02-18T09:35:56.337Z,24.10
2019-02-18T09:38:26.181Z,24.10
2019-02-18T09:41:17.006Z,24.20
2019-02-18T09:43:46.998Z,24.10
2019-02-18T09:46:19.682Z,24.10
2019-02-18T09:48:52.740Z,24.10
2019-02-18T09:51:25.326Z,24.10
2019-02-18T09:53:54.928Z,24.10
2019-02-18T09:56:24.665Z,24.00
2019-02-18T09:58:54.573Z,23.90
2019-02-18T10:01:24.535Z,23.80
2019-02-18T10:03:54.474Z,23.80
2019-02-18T10:06:24.115Z,23.80
2019-02-18T10:08:54.305Z,23.90
2019-02-18T10:11:23.929Z,24.00
2019-02-18T10:13:53.604Z,24.10
2019-02-18T10:16:23.120Z,24.20
2019-02-18T10:18:52.587Z,24.40
2019-02-18T10:21:30.181Z,24.50
2019-02-18T10:23:59.748Z,24.50
2019-02-18T10:26:29.208Z,24.50
2019-02-18T10:28:58.970Z,24.50
2019-02-18T10:31:29.008Z,24.40
2019-02-18T10:33:59.238Z,24.30
2019-02-18T10:36:28.688Z,24.30
2019-02-18T10:38:58.649Z,24.40
2019-02-18T10:41:28.223Z,24.40
2019-02-18T10:43:58.313Z,24.40
2019-02-18T10:46:28.459Z,24.40
2019-02-18T10:48:58.112Z,24.20
2019-02-18T10:51:30.152Z,24.10
2019-02-18T10:53:59.853Z,24.00
2019-02-18T10:56:29.723Z,23.80
2019-02-18T10:58:59.675Z,23.60
2019-02-18T11:01:29.221Z,23.40
2019-02-18T11:03:58.784Z,23.20
2019-02-18T11:06:28.234Z,23.00
2019-02-18T11:08:57.828Z,22.80
2019-02-18T11:11:30.214Z,22.60
2019-02-18T11:14:00.874Z,22.30
2019-02-18T11:16:30.657Z,22.10
2019-02-18T11:19:01.287Z,21.90
2019-02-18T11:21:30.920Z,21.80
2019-02-18T11:24:02.279Z,21.60
2019-02-18T11:26:31.892Z,21.50
2019-02-18T11:29:02.842Z,21.30
2019-02-18T11:31:33.722Z,21.20
2019-02-18T11:34:03.254Z,21.10
2019-02-18T11:36:32.720Z,20.90
2019-02-18T11:39:02.174Z,20.80
2019-02-18T11:41:31.577Z,20.60
2019-02-18T11:44:01.652Z,20.50
2019-02-18T11:46:31.693Z,20.40
2019-02-18T11:49:01.147Z,20.20
2019-02-18T11:51:30.814Z,20.10
2019-02-18T11:54:01.429Z,20.00
2019-02-18T11:56:32.613Z,19.90
2019-02-18T11:59:02.386Z,19.80
2019-02-18T12:01:32.323Z,19.70
2019-02-18T12:04:01.825Z,19.60
2019-02-18T12:06:34.785Z,19.40
2019-02-18T12:09:05.228Z,19.20
2019-02-18T12:11:37.824Z,19.10
2019-02-18T12:14:06.634Z,19.00
2019-02-18T12:16:36.506Z,18.90
2019-02-18T12:19:09.248Z,18.80
2019-02-18T12:21:38.950Z,18.70
2019-02-18T12:24:08.600Z,18.60
2019-02-18T12:26:39.046Z,18.60
2019-02-18T12:29:08.879Z,18.50
2019-02-18T12:31:38.554Z,18.40
2019-02-18T12:34:08.110Z,18.30
2019-02-18T12:36:37.634Z,18.30
2019-02-18T12:39:09.067Z,18.20
2019-02-18T12:41:48.231Z,18.10
2019-02-18T12:44:10.484Z,18.10
2019-02-18T12:46:40.463Z,18.00
2019-02-18T12:49:25.080Z,17.90
2019-02-18T12:51:56.744Z,17.90
2019-02-18T12:54:26.558Z,17.80
2019-02-18T12:56:56.103Z,17.80
2019-02-18T12:59:25.652Z,17.70
2019-02-18T13:01:55.355Z,17.70
2019-02-18T13:04:26.453Z,17.60
2019-02-18T13:06:56.639Z,17.50
2019-02-18T13:09:28.855Z,17.50
2019-02-18T13:11:59.276Z,17.50
2019-02-18T13:14:30.582Z,17.40
2019-02-18T13:17:00.554Z,17.50
2019-02-18T13:19:30.373Z,17.50
2019-02-18T13:22:01.816Z,17.50
2019-02-18T13:24:34.489Z,17.50
2019-02-18T13:27:04.074Z,17.50
2019-02-18T13:29:33.766Z,17.50
2019-02-18T13:32:03.551Z,17.50
2019-02-18T13:34:36.276Z,17.40
2019-02-18T13:37:06.330Z,17.40
2019-02-18T13:39:36.008Z,17.40
2019-02-18T13:42:07.642Z,17.40
2019-02-18T13:44:41.471Z,17.40
2019-02-18T13:47:14.399Z,17.50
2019-02-18T13:49:50.447Z,17.50
2019-02-18T13:52:20.145Z,17.50
2019-02-18T13:54:50.013Z,17.50
2019-02-18T13:57:25.464Z,17.60
2019-02-18T13:59:55.331Z,17.60
2019-02-18T14:02:27.281Z,17.60
2019-02-18T14:04:56.834Z,17.60
2019-02-18T14:07:28.660Z,17.60
2019-02-18T14:09:59.247Z,17.60
2019-02-18T14:12:30.787Z,17.70
2019-02-18T14:15:01.064Z,17.60
2019-02-18T14:17:31.860Z,17.60
2019-02-18T14:20:18.359Z,17.60
2019-02-18T14:22:48.185Z,17.60
2019-02-18T14:25:18.038Z,17.60
2019-02-18T14:27:47.550Z,17.60
2019-02-18T14:30:19.111Z,17.60
2019-02-18T14:32:49.501Z,17.60
2019-02-18T14:35:22.138Z,17.60
2019-02-18T14:37:54.140Z,17.60
2019-02-18T14:40:32.051Z,17.60
2019-02-18T14:43:03.457Z,17.60
2019-02-18T14:45:33.539Z,17.50
2019-02-18T14:48:04.904Z,17.50
2019-02-18T14:50:37.324Z,17.50
2019-02-18T14:53:10.279Z,17.40
2019-02-18T14:55:41.115Z,17.40
2019-02-18T14:58:11.682Z,17.40
2019-02-18T15:00:45.145Z,17.40
2019-02-18T15:03:14.788Z,17.40
2019-02-18T15:05:44.498Z,17.60
2019-02-18T15:08:14.382Z,17.40
2019-02-18T15:10:43.961Z,17.40
2019-02-18T15:13:13.551Z,17.30
2019-02-18T15:15:43.730Z,17.30
2019-02-18T15:18:15.295Z,17.30
2019-02-18T15:20:45.224Z,17.30
2019-02-18T15:23:15.091Z,17.30
2019-02-18T15:25:44.680Z,17.30
2019-02-18T15:28:15.956Z,17.20
2019-02-18T15:30:47.851Z,17.20
2019-02-18T15:33:22.819Z,17.10
2019-02-18T15:35:55.839Z,17.10
2019-02-18T15:38:26.550Z,17.00
2019-02-18T15:40:56.139Z,16.90
2019-02-18T15:43:26.748Z,16.90
2019-02-18T15:45:58.173Z,16.80
2019-02-18T15:48:29.514Z,16.80
2019-02-18T15:50:59.750Z,16.70
2019-02-18T15:53:29.431Z,16.60
2019-02-18T15:55:59.599Z,16.50
2019-02-18T15:58:30.394Z,16.40
2019-02-18T16:01:00.401Z,16.40
2019-02-18T16:03:30.870Z,16.30
2019-02-18T16:06:00.568Z,16.20
2019-02-18T16:08:32.102Z,16.20
2019-02-18T16:11:01.717Z,16.10
2019-02-18T16:13:31.881Z,16.00
2019-02-18T16:16:04.362Z,16.00
2019-02-18T16:18:34.069Z,15.90
2019-02-18T16:21:06.252Z,15.80
2019-02-18T16:23:37.984Z,15.70
2019-02-18T16:26:13.785Z,15.60
2019-02-18T16:28:43.630Z,15.60
2019-02-18T16:31:13.343Z,15.50
2019-02-18T16:33:45.741Z,15.40
2019-02-18T16:36:15.462Z,15.30
2019-02-18T16:38:46.457Z,15.30
2019-02-18T16:41:17.394Z,15.20
2019-02-18T16:43:46.886Z,15.10
2019-02-18T16:46:16.449Z,15.00
2019-02-18T16:48:46.376Z,14.90
2019-02-18T16:51:15.901Z,14.80
2019-02-18T16:53:45.855Z,14.80
2019-02-18T16:56:15.894Z,14.70
2019-02-18T16:58:45.629Z,14.60
2019-02-18T17:01:15.245Z,14.50
2019-02-18T17:03:46.047Z,14.40
2019-02-18T17:06:16.600Z,14.20
2019-02-18T17:08:46.743Z,14.20
2019-02-18T17:11:17.585Z,14.10
2019-02-18T17:13:47.256Z,14.00
2019-02-18T17:16:23.228Z,13.90
2019-02-18T17:18:52.301Z,13.90
2019-02-18T17:21:22.950Z,13.80
2019-02-18T17:23:52.570Z,13.70
2019-02-18T17:26:22.589Z,13.70
2019-02-18T17:28:52.290Z,13.60
2019-02-18T17:31:23.236Z,13.60
2019-02-18T17:33:53.112Z,13.50
2019-02-18T17:36:22.588Z,13.50
2019-02-18T17:38:52.128Z,13.40
2019-02-18T17:41:21.670Z,13.40
2019-02-18T17:43:51.347Z,13.30
2019-02-18T17:46:21.074Z,13.20
2019-02-18T17:48:50.587Z,13.20
2019-02-18T17:51:41.835Z,13.10
2019-02-18T17:54:11.551Z,13.10
2019-02-18T17:56:40.960Z,13.10
2019-02-18T17:59:10.350Z,13.00
2019-02-18T18:01:39.758Z,12.90
2019-02-18T18:04:10.771Z,12.90
2019-02-18T18:06:40.395Z,12.90
2019-02-18T18:09:09.992Z,12.80
2019-02-18T18:11:39.363Z,12.80
2019-02-18T18:14:09.015Z,12.70
2019-02-18T18:16:38.396Z,12.70
2019-02-18T18:19:09.547Z,12.70
2019-02-18T18:21:39.111Z,12.60
2019-02-18T18:24:08.873Z,12.60
2019-02-18T18:26:38.247Z,12.60
2019-02-18T18:29:07.622Z,12.60
2019-02-18T18:31:37.064Z,12.50
2019-02-18T18:34:06.458Z,12.50
2019-02-18T18:36:35.826Z,12.40
2019-02-18T18:39:06.107Z,12.40
2019-02-18T18:41:35.464Z,12.30
2019-02-18T18:44:04.851Z,12.30
2019-02-18T18:46:34.556Z,12.20
2019-02-18T18:49:03.948Z,12.20
2019-02-18T18:51:33.820Z,12.10
2019-02-18T18:54:03.199Z,12.10
2019-02-18T18:56:32.859Z,12.10
2019-02-18T18:59:02.247Z,12.10
2019-02-18T19:01:31.615Z,12.00
2019-02-18T19:04:01.007Z,12.00
2019-02-18T19:06:30.644Z,12.00
2019-02-18T19:09:00.271Z,12.00
2019-02-18T19:11:30.244Z,12.00
2019-02-18T19:13:59.602Z,12.00
2019-02-18T19:16:29.338Z,11.90
2019-02-18T19:18:58.718Z,11.90
2019-02-18T19:21:28.400Z,11.90
2019-02-18T19:23:57.796Z,11.90
2019-02-18T19:26:27.168Z,11.90
2019-02-18T19:28:56.541Z,11.90
2019-02-18T19:31:26.308Z,11.90
2019-02-18T19:33:56.527Z,11.90
2019-02-18T19:36:26.374Z,11.90
2019-02-18T19:38:56.088Z,11.90
2019-02-18T19:41:25.777Z,11.90
2019-02-18T19:43:55.291Z,11.80
2019-02-18T19:46:24.834Z,11.90
2019-02-18T19:48:54.533Z,11.90
2019-02-18T19:51:24.279Z,11.80
2019-02-18T19:53:53.664Z,11.80
2019-02-18T19:56:23.053Z,11.80
2019-02-18T19:58:52.682Z,11.80
2019-02-18T20:01:22.074Z,11.80
2019-02-18T20:03:51.456Z,11.80
2019-02-18T20:06:20.905Z,11.80
2019-02-18T20:08:50.317Z,11.80
2019-02-18T20:11:19.703Z,11.80
2019-02-18T20:13:49.083Z,11.80
2019-02-18T20:16:18.880Z,11.80
2019-02-18T20:18:48.259Z,11.70
2019-02-18T20:21:17.643Z,11.70
2019-02-18T20:23:47.036Z,11.60
2019-02-18T20:26:16.689Z,11.60
2019-02-18T20:28:46.056Z,11.60
2019-02-18T20:31:15.852Z,11.60
2019-02-18T20:33:46.209Z,11.50
2019-02-18T20:36:16.437Z,11.50
2019-02-18T20:38:45.807Z,11.50
2019-02-18T20:41:15.198Z,11.50
2019-02-18T20:43:44.571Z,11.50
2019-02-18T20:46:16.597Z,11.40
2019-02-18T20:48:45.963Z,11.40
2019-02-18T20:51:15.690Z,11.40
2019-02-18T20:53:45.060Z,11.40
2019-02-18T20:56:15.117Z,11.40
2019-02-18T20:58:44.912Z,11.40
2019-02-18T21:01:14.283Z,11.30
2019-02-18T21:03:43.888Z,11.30
2019-02-18T21:06:13.289Z,11.40
2019-02-18T21:08:42.672Z,11.40
2019-02-18T21:11:12.070Z,11.40
2019-02-18T21:13:43.428Z,11.40
2019-02-18T21:16:13.061Z,11.40
2019-02-18T21:18:42.425Z,11.30
2019-02-18T21:21:11.815Z,11.30
2019-02-18T21:23:41.187Z,11.30
2019-02-18T21:26:10.572Z,11.20
2019-02-18T21:28:40.013Z,11.20
2019-02-18T21:31:09.509Z,11.20
2019-02-18T21:33:38.871Z,11.20
2019-02-18T21:36:08.317Z,11.20
2019-02-18T21:38:37.699Z,11.10
2019-02-18T21:41:07.149Z,11.10
2019-02-18T21:43:36.516Z,11.00
2019-02-18T21:46:05.908Z,11.00
2019-02-18T21:48:35.313Z,11.00
2019-02-18T21:51:04.807Z,11.00
2019-02-18T21:53:34.177Z,10.90
2019-02-18T21:56:03.860Z,10.90
2019-02-18T21:58:33.230Z,10.90
2019-02-18T22:01:02.868Z,10.90
2019-02-18T22:03:32.271Z,10.90
2019-02-18T22:06:01.644Z,10.90
2019-02-18T22:08:31.030Z,10.80
2019-02-18T22:11:00.789Z,10.90
2019-02-18T22:13:30.416Z,10.90
2019-02-18T22:15:59.799Z,10.90
2019-02-18T22:21:05.709Z,10.90
2019-02-18T22:23:35.086Z,10.90
2019-02-18T22:26:04.752Z,10.90
2019-02-18T22:28:34.389Z,11.00
2019-02-18T22:31:03.764Z,11.00
2019-02-18T22:33:33.284Z,11.00
2019-02-18T22:36:03.594Z,11.00
2019-02-18T22:38:32.964Z,11.00
2019-02-18T22:41:02.880Z,11.00
2019-02-18T22:43:32.238Z,11.00
2019-02-18T22:46:01.646Z,11.00
2019-02-18T22:48:31.008Z,11.00
2019-02-18T22:51:00.399Z,11.00
2019-02-18T22:53:29.758Z,11.00
2019-02-18T22:55:59.765Z,11.00
2019-02-18T22:58:29.174Z,11.00
2019-02-18T23:01:00.373Z,11.00
2019-02-18T23:03:29.758Z,10.90
2019-02-18T23:05:59.105Z,10.90
2019-02-18T23:08:28.550Z,10.90
2019-02-18T23:10:58.220Z,10.90
2019-02-18T23:13:27.590Z,10.80
2019-02-18T23:15:56.970Z,10.80
2019-02-18T23:18:26.525Z,10.80
2019-02-18T23:20:55.884Z,10.80
2019-02-18T23:23:25.513Z,10.80
2019-02-18T23:25:55.108Z,10.80
2019-02-18T23:28:24.731Z,10.80
2019-02-18T23:30:54.121Z,10.80
2019-02-18T23:33:23.481Z,10.80
2019-02-18T23:35:52.856Z,10.80
2019-02-18T23:38:22.233Z,10.80
2019-02-18T23:40:51.621Z,10.90
2019-02-18T23:43:20.992Z,10.90
2019-02-18T23:45:50.647Z,10.90
2019-02-18T23:48:20.022Z,10.90
2019-02-18T23:50:49.385Z,10.90
2019-02-18T23:53:18.765Z,10.90
2019-02-18T23:55:48.151Z,10.90
2019-02-18T23:58:17.530Z,10.90
